createdAt,value
2022-12-27T00:01:31.645Z,90.14
2022-12-27T00:03:58.356Z,90.50
2022-12-27T00:06:26.486Z,90.84
2022-12-27T00:08:53.642Z,91.27
2022-12-27T00:11:22.919Z,91.39
2022-12-27T00:13:49.670Z,91.26
2022-12-27T00:16:20.377Z,91.10
2022-12-27T00:18:49.269Z,90.96
2022-12-27T00:21:17.404Z,91.40
2022-12-27T00:23:46.958Z,90.85
2022-12-27T00:26:17.177Z,91.49
2022-12-27T00:28:44.610Z,91.54
2022-12-27T00:31:11.721Z,91.33
2022-12-27T00:33:40.692Z,90.68
2022-12-27T00:36:09.477Z,91.61
2022-12-27T00:38:36.137Z,91.12
2022-12-27T00:41:03.892Z,91.57
2022-12-27T00:43:32.803Z,91.05
2022-12-27T00:45:59.525Z,91.63
2022-12-27T00:48:29.032Z,91.61
2022-12-27T00:51:07.374Z,91.53
2022-12-27T00:53:35.139Z,91.45
2022-12-27T00:56:05.831Z,91.84
2022-12-27T00:58:32.362Z,91.67
2022-12-27T01:01:10.178Z,91.95
2022-12-27T01:03:37.554Z,91.57
2022-12-27T01:06:09.547Z,91.92
2022-12-27T01:08:39.202Z,91.95
2022-12-27T01:11:07.059Z,91.93
2022-12-27T01:13:34.763Z,91.48
2022-12-27T01:16:01.464Z,92.55
2022-12-27T01:18:28.491Z,92.22
2022-12-27T01:20:57.692Z,92.71
2022-12-27T01:23:27.840Z,92.84
2022-12-27T01:26:10.286Z,92.73
2022-12-27T01:28:39.305Z,92.67
2022-12-27T01:31:12.191Z,92.47
2022-12-27T01:33:39.304Z,93.09
2022-12-27T01:36:12.319Z,92.60
2022-12-27T01:38:39.552Z,92.45
2022-12-27T01:41:26.035Z,92.71
2022-12-27T01:43:52.606Z,92.65
2022-12-27T01:46:19.259Z,92.65
2022-12-27T01:48:46.567Z,92.48
2022-12-27T01:51:13.930Z,93.11
2022-12-27T01:53:44.814Z,92.93
2022-12-27T01:56:31.943Z,93.15
2022-12-27T01:59:11.528Z,93.05
2022-12-27T02:01:42.542Z,93.16
2022-12-27T02:04:16.367Z,93.19
2022-12-27T02:06:43.312Z,92.90
2022-12-27T02:09:22.660Z,92.92
2022-12-27T02:11:56.941Z,93.38
2022-12-27T02:14:32.364Z,92.30
2022-12-27T02:17:01.482Z,92.06
2022-12-27T02:19:40.237Z,92.57
2022-12-27T02:22:18.856Z,91.81
2022-12-27T02:25:10.718Z,91.86
2022-12-27T02:28:14.722Z,92.06
2022-12-27T02:30:44.640Z,92.13
2022-12-27T02:33:19.405Z,92.34
2022-12-27T02:35:55.517Z,92.30
2022-12-27T02:38:31.634Z,93.08
2022-12-27T02:41:20.871Z,92.60
2022-12-27T02:44:06.259Z,92.90
2022-12-27T02:46:51.707Z,92.65
2022-12-27T02:49:55.291Z,92.56
2022-12-27T02:53:01.865Z,92.88
2022-12-27T02:55:30.647Z,92.30
2022-12-27T02:58:21.436Z,92.80
2022-12-27T03:01:16.873Z,93.20
2022-12-27T03:04:10.735Z,92.89
2022-12-27T03:07:19.794Z,92.39
2022-12-27T03:10:11.041Z,92.46
2022-12-27T03:13:19.743Z,92.88
2022-12-27T03:16:01.312Z,92.93
2022-12-27T03:18:27.917Z,91.83
2022-12-27T03:21:18.731Z,92.59
2022-12-27T03:24:09.791Z,92.42
2022-12-27T03:26:40.131Z,92.02
2022-12-27T03:29:27.354Z,91.99
2022-12-27T03:32:16.864Z,91.81
2022-12-27T03:34:53.146Z,92.01
2022-12-27T03:37:59.067Z,92.36
2022-12-27T03:41:11.094Z,92.67
2022-12-27T03:43:40.000Z,91.95
2022-12-27T03:46:33.917Z,92.65
2022-12-27T03:49:09.729Z,93.15
2022-12-27T03:51:58.146Z,92.90
2022-12-27T03:54:34.663Z,92.37
2022-12-27T03:57:05.601Z,93.03
2022-12-27T03:59:32.548Z,93.01
2022-12-27T04:01:59.999Z,92.85
2022-12-27T04:04:26.879Z,93.23
2022-12-27T04:06:53.739Z,93.32
2022-12-27T04:09:39.073Z,93.24
2022-12-27T04:12:24.640Z,92.58
2022-12-27T04:15:09.877Z,92.86
2022-12-27T04:17:54.898Z,92.77
2022-12-27T04:20:40.404Z,93.24
2022-12-27T04:23:25.871Z,93.78
2022-12-27T04:26:11.116Z,93.18
2022-12-27T04:28:58.616Z,93.13
2022-12-27T04:31:44.111Z,93.13
2022-12-27T04:34:31.706Z,92.87
2022-12-27T04:36:58.311Z,92.95
2022-12-27T04:39:26.997Z,92.24
2022-12-27T04:42:14.660Z,92.59
2022-12-27T04:45:00.008Z,92.99
2022-12-27T04:47:45.242Z,92.83
2022-12-27T04:50:47.904Z,93.28
2022-12-27T04:53:39.258Z,93.31
2022-12-27T04:56:07.375Z,93.21
2022-12-27T04:58:36.681Z,93.51
2022-12-27T05:01:23.902Z,93.72
2022-12-27T05:03:54.739Z,93.20
2022-12-27T05:06:23.813Z,93.85
2022-12-27T05:09:08.691Z,94.07
2022-12-27T05:11:53.815Z,94.23
2022-12-27T05:14:20.506Z,94.19
2022-12-27T05:16:49.666Z,93.91
2022-12-27T05:19:19.291Z,94.63
2022-12-27T05:22:05.788Z,94.17
2022-12-27T05:24:53.431Z,94.21
2022-12-27T05:27:22.543Z,94.31
2022-12-27T05:29:49.147Z,94.80
2022-12-27T05:32:15.941Z,94.67
2022-12-27T05:34:42.495Z,94.80
2022-12-27T05:37:12.126Z,94.84
2022-12-27T05:39:38.799Z,94.85
2022-12-27T05:42:05.616Z,94.60
2022-12-27T05:44:32.204Z,94.23
2022-12-27T05:47:01.001Z,94.61
2022-12-27T05:49:27.619Z,94.83
2022-12-27T05:51:54.164Z,95.31
2022-12-27T05:54:20.755Z,95.16
2022-12-27T05:56:49.746Z,94.81
2022-12-27T05:59:16.327Z,94.47
2022-12-27T06:01:43.036Z,94.96
2022-12-27T06:04:10.567Z,94.72
2022-12-27T06:06:39.421Z,95.06
2022-12-27T06:09:11.023Z,95.02
2022-12-27T06:11:37.636Z,95.05
2022-12-27T06:14:04.131Z,94.77
2022-12-27T06:16:30.705Z,95.13
2022-12-27T06:18:57.249Z,94.89
2022-12-27T06:21:26.307Z,95.48
2022-12-27T06:23:52.981Z,95.02
2022-12-27T06:26:23.246Z,95.25
2022-12-27T06:28:50.716Z,94.98
2022-12-27T06:31:19.092Z,95.46
2022-12-27T06:33:46.701Z,95.41
2022-12-27T06:36:18.424Z,95.36
2022-12-27T06:38:45.080Z,95.64
2022-12-27T06:41:17.416Z,95.35
2022-12-27T06:43:44.865Z,96.19
2022-12-27T06:46:17.597Z,95.83
2022-12-27T06:48:47.673Z,95.73
2022-12-27T06:51:16.058Z,95.77
2022-12-27T06:53:42.599Z,95.99
2022-12-27T06:56:16.785Z,95.98
2022-12-27T06:58:46.711Z,96.03
2022-12-27T07:01:19.600Z,95.63
2022-12-27T07:03:51.243Z,95.93
2022-12-27T07:06:18.950Z,96.15
2022-12-27T07:08:46.469Z,95.78
2022-12-27T07:11:14.573Z,95.88
2022-12-27T07:13:47.154Z,95.97
2022-12-27T07:16:15.906Z,95.83
2022-12-27T07:18:42.847Z,95.95
2022-12-27T07:21:17.628Z,96.59
2022-12-27T07:23:45.084Z,96.50
2022-12-27T07:26:14.433Z,96.80
2022-12-27T07:28:41.633Z,96.68
2022-12-27T07:31:23.003Z,96.49
2022-12-27T07:33:50.284Z,96.65
2022-12-27T07:36:19.327Z,96.65
2022-12-27T07:38:46.234Z,96.88
2022-12-27T07:41:13.709Z,97.54
2022-12-27T07:43:40.815Z,97.41
2022-12-27T07:46:12.264Z,96.88
2022-12-27T07:48:48.628Z,97.09
2022-12-27T07:51:16.833Z,96.89
2022-12-27T07:53:44.115Z,96.39
2022-12-27T07:56:13.788Z,96.36
2022-12-27T07:58:43.394Z,97.24
2022-12-27T08:01:11.399Z,96.98
2022-12-27T08:03:40.624Z,96.49
2022-12-27T08:06:08.886Z,96.68
2022-12-27T08:08:40.777Z,96.73
2022-12-27T08:11:07.470Z,96.33
2022-12-27T08:13:37.697Z,96.16
2022-12-27T08:16:04.652Z,96.94
2022-12-27T08:18:31.252Z,96.72
2022-12-27T08:21:00.250Z,96.82
2022-12-27T08:23:29.038Z,96.54
2022-12-27T08:25:55.567Z,96.69
2022-12-27T08:28:24.382Z,95.56
2022-12-27T08:30:50.995Z,96.11
2022-12-27T08:33:17.587Z,96.15
2022-12-27T08:35:54.341Z,96.17
2022-12-27T08:38:21.724Z,96.29
2022-12-27T08:40:48.276Z,96.15
2022-12-27T08:43:15.537Z,96.20
2022-12-27T08:45:42.407Z,96.36
2022-12-27T08:48:11.735Z,95.76
2022-12-27T08:50:38.379Z,95.36
2022-12-27T08:53:06.188Z,95.97
2022-12-27T08:55:33.549Z,96.32
2022-12-27T08:58:09.219Z,95.95
2022-12-27T09:00:42.706Z,96.24
2022-12-27T09:03:09.690Z,95.89
2022-12-27T09:05:41.396Z,96.09
2022-12-27T09:08:08.785Z,95.89
2022-12-27T09:10:35.297Z,95.58
2022-12-27T09:13:01.997Z,95.64
2022-12-27T09:15:31.218Z,95.77
2022-12-27T09:18:00.202Z,95.56
2022-12-27T09:20:26.930Z,96.32
2022-12-27T09:22:55.940Z,96.05
2022-12-27T09:25:22.571Z,95.66
2022-12-27T09:27:49.183Z,95.93
2022-12-27T09:30:15.784Z,96.00
2022-12-27T09:32:44.646Z,95.67
2022-12-27T09:35:11.165Z,96.02
2022-12-27T09:37:37.752Z,95.80
2022-12-27T09:40:04.797Z,95.81
2022-12-27T09:43:07.544Z,95.35
2022-12-27T09:45:52.063Z,94.56
2022-12-27T09:48:24.215Z,94.55
2022-12-27T09:51:04.051Z,94.32
2022-12-27T09:53:43.267Z,94.15
2022-12-27T09:56:16.114Z,94.49
2022-12-27T09:58:55.255Z,94.81
2022-12-27T10:01:37.109Z,94.34
2022-12-27T10:04:05.172Z,94.18
2022-12-27T10:06:53.444Z,94.59
2022-12-27T10:09:41.476Z,94.19
2022-12-27T10:12:20.558Z,94.18
2022-12-27T10:15:09.101Z,94.15
2022-12-27T10:18:09.047Z,93.99
2022-12-27T10:20:44.517Z,93.82
2022-12-27T10:23:15.951Z,93.50
2022-12-27T10:25:46.465Z,93.75
2022-12-27T10:28:28.332Z,93.66
2022-12-27T10:31:02.860Z,93.92
2022-12-27T10:33:32.317Z,93.50
2022-12-27T10:35:59.105Z,93.46
2022-12-27T10:38:33.654Z,93.22
2022-12-27T10:41:25.707Z,92.74
2022-12-27T10:43:54.041Z,93.16
2022-12-27T10:46:32.456Z,94.40
2022-12-27T10:51:52.916Z,92.49
2022-12-27T10:54:26.538Z,92.29
2022-12-27T10:56:54.211Z,92.42
2022-12-27T10:59:22.523Z,92.08
2022-12-27T11:02:12.747Z,92.42
2022-12-27T11:04:57.297Z,92.67
2022-12-27T11:07:31.668Z,93.00
2022-12-27T11:10:18.074Z,93.21
2022-12-27T11:13:05.034Z,93.13
2022-12-27T11:15:37.078Z,93.28
2022-12-27T11:18:31.922Z,93.43
2022-12-27T11:20:59.425Z,93.50
2022-12-27T11:23:37.029Z,93.85
2022-12-27T11:26:06.669Z,93.97
2022-12-27T11:28:43.564Z,94.26
2022-12-27T11:31:12.864Z,94.12
2022-12-27T11:33:42.516Z,93.99
2022-12-27T11:36:11.033Z,93.39
2022-12-27T11:38:40.207Z,93.62
2022-12-27T11:41:14.238Z,93.89
2022-12-27T11:44:20.719Z,93.82
2022-12-27T11:46:59.263Z,93.89
2022-12-27T11:49:36.097Z,94.02
2022-12-27T11:52:33.823Z,94.40
2022-12-27T11:55:28.671Z,94.21
2022-12-27T11:58:17.086Z,94.28
2022-12-27T12:01:14.358Z,94.34
2022-12-27T12:04:18.964Z,94.51
2022-12-27T12:06:55.900Z,94.51
2022-12-27T12:09:42.782Z,94.03
2022-12-27T12:12:31.233Z,94.13
2022-12-27T12:15:13.395Z,93.74
2022-12-27T12:18:02.828Z,93.16
2022-12-27T12:21:00.256Z,92.64
2022-12-27T12:23:48.482Z,92.13
2022-12-27T12:26:30.813Z,92.16
2022-12-27T12:29:15.654Z,92.62
2022-12-27T12:31:52.475Z,92.55
2022-12-27T12:34:25.162Z,93.02
2022-12-27T12:37:03.116Z,92.78
2022-12-27T12:39:29.577Z,92.67
2022-12-27T12:42:02.926Z,92.08
2022-12-27T12:44:56.236Z,91.88
2022-12-27T12:48:08.962Z,91.78
2022-12-27T12:50:52.495Z,91.92
2022-12-27T12:53:30.605Z,91.75
2022-12-27T12:56:14.001Z,91.78
2022-12-27T12:59:13.054Z,91.83
2022-12-27T13:02:13.520Z,91.73
2022-12-27T13:04:52.350Z,91.77
2022-12-27T13:07:41.061Z,90.72
2022-12-27T13:10:16.754Z,91.35
2022-12-27T13:12:53.062Z,90.03
2022-12-27T13:15:38.192Z,91.36
2022-12-27T13:18:36.272Z,91.24
2022-12-27T13:21:14.033Z,91.69
2022-12-27T13:23:46.728Z,91.70
2022-12-27T13:26:33.480Z,91.43
2022-12-27T13:29:18.625Z,91.42
2022-12-27T13:31:57.934Z,91.72
2022-12-27T13:34:40.607Z,91.36
2022-12-27T13:37:30.558Z,91.13
2022-12-27T13:40:47.980Z,91.08
2022-12-27T13:43:14.498Z,89.88
2022-12-27T13:46:13.613Z,89.95
2022-12-27T13:48:46.246Z,90.25
2022-12-27T13:51:42.054Z,89.88
2022-12-27T13:54:20.529Z,90.27
2022-12-27T13:56:55.438Z,90.06
2022-12-27T13:59:34.734Z,90.35
2022-12-27T14:02:34.876Z,90.09
2022-12-27T14:05:01.537Z,90.47
2022-12-27T14:07:33.731Z,90.39
2022-12-27T14:10:31.393Z,90.40
2022-12-27T14:12:59.549Z,90.66
2022-12-27T14:15:29.087Z,90.48
2022-12-27T14:18:39.480Z,90.59
2022-12-27T14:21:23.864Z,91.17
2022-12-27T14:24:25.934Z,90.63
2022-12-27T14:27:07.517Z,89.92
2022-12-27T14:30:02.245Z,90.39
2022-12-27T14:33:06.367Z,90.67
2022-12-27T14:35:53.947Z,90.64
2022-12-27T14:38:45.406Z,90.74
2022-12-27T14:41:49.841Z,90.96
2022-12-27T14:44:43.731Z,90.52
2022-12-27T14:47:35.317Z,90.59
2022-12-27T14:50:24.823Z,90.89
2022-12-27T14:53:33.058Z,90.84
2022-12-27T14:56:27.616Z,91.48
2022-12-27T14:59:13.457Z,91.79
2022-12-27T15:02:24.298Z,91.84
2022-12-27T15:05:06.454Z,91.70
2022-12-27T15:07:51.193Z,92.11
2022-12-27T15:10:26.068Z,92.22
2022-12-27T15:13:25.307Z,92.03
2022-12-27T15:16:17.692Z,92.10
2022-12-27T15:18:50.776Z,92.31
2022-12-27T15:21:42.143Z,92.01
2022-12-27T15:24:27.562Z,92.51
2022-12-27T15:27:06.569Z,92.46
2022-12-27T15:29:49.688Z,92.28
2022-12-27T15:32:53.274Z,92.37
2022-12-27T15:35:57.628Z,91.59
2022-12-27T15:38:27.211Z,92.14
2022-12-27T15:41:09.438Z,92.41
2022-12-27T15:44:13.205Z,92.54
2022-12-27T15:46:58.455Z,92.42
2022-12-27T15:50:02.923Z,93.21
2022-12-27T15:52:59.491Z,93.23
2022-12-27T15:55:35.258Z,93.53
2022-12-27T15:58:12.096Z,93.64
2022-12-27T16:00:39.456Z,93.75
2022-12-27T16:03:39.245Z,93.06
2022-12-27T16:06:09.553Z,93.69
2022-12-27T16:08:36.478Z,93.64
2022-12-27T16:11:05.906Z,93.21
2022-12-27T16:13:37.670Z,93.66
2022-12-27T16:16:28.697Z,93.49
2022-12-27T16:19:19.876Z,93.38
2022-12-27T16:21:46.910Z,93.58
2022-12-27T16:24:20.913Z,93.27
2022-12-27T16:27:07.829Z,93.63
2022-12-27T16:29:43.586Z,93.76
2022-12-27T16:32:23.676Z,94.00
2022-12-27T16:34:55.953Z,93.81
2022-12-27T16:37:28.415Z,93.82
2022-12-27T16:40:10.162Z,93.76
2022-12-27T16:42:58.112Z,94.04
2022-12-27T16:45:39.959Z,93.95
2022-12-27T16:48:24.309Z,94.08
2022-12-27T16:51:17.371Z,94.15
2022-12-27T16:54:04.573Z,94.20
2022-12-27T16:56:38.971Z,94.07
2022-12-27T16:59:44.295Z,94.11
2022-12-27T17:02:40.416Z,93.43
2022-12-27T17:05:16.362Z,93.83
2022-12-27T17:07:44.712Z,93.73
2022-12-27T17:10:38.481Z,93.50
2022-12-27T17:13:34.276Z,93.25
2022-12-27T17:16:26.099Z,93.28
2022-12-27T17:19:03.714Z,93.76
2022-12-27T17:21:34.155Z,93.57
2022-12-27T17:24:09.107Z,93.97
2022-12-27T17:27:04.088Z,94.05
2022-12-27T17:29:55.134Z,94.30
2022-12-27T17:32:43.076Z,94.18
2022-12-27T17:35:43.795Z,94.40
2022-12-27T17:38:22.304Z,94.45
2022-12-27T17:41:04.173Z,94.34
2022-12-27T17:44:17.600Z,94.34
2022-12-27T17:46:51.450Z,94.24
2022-12-27T17:49:24.800Z,94.55
2022-12-27T17:52:09.998Z,94.47
2022-12-27T17:54:55.735Z,94.41
2022-12-27T17:57:41.388Z,94.83
2022-12-27T18:00:23.440Z,94.66
2022-12-27T18:02:51.291Z,94.66
2022-12-27T18:05:21.049Z,94.35
2022-12-27T18:07:53.578Z,94.51
2022-12-27T18:10:26.136Z,94.29
2022-12-27T18:12:55.162Z,94.36
2022-12-27T18:15:29.281Z,94.40
2022-12-27T18:17:59.563Z,94.14
2022-12-27T18:20:26.225Z,94.45
2022-12-27T18:23:06.752Z,94.45
2022-12-27T18:25:49.138Z,94.29
2022-12-27T18:28:19.024Z,94.06
2022-12-27T18:30:55.656Z,94.01
2022-12-27T18:33:49.515Z,94.32
2022-12-27T18:36:27.917Z,93.88
2022-12-27T18:39:01.129Z,93.69
2022-12-27T18:41:36.427Z,93.78
2022-12-27T18:44:03.778Z,93.52
2022-12-27T18:46:37.237Z,93.73
2022-12-27T18:49:04.584Z,93.67
2022-12-27T18:51:37.223Z,93.78
2022-12-27T18:54:30.398Z,93.79
2022-12-27T18:56:59.467Z,93.92
2022-12-27T18:59:28.892Z,93.54
2022-12-27T19:02:21.468Z,93.64
2022-12-27T19:05:13.651Z,93.55
2022-12-27T19:07:40.513Z,93.53
2022-12-27T19:10:18.011Z,93.48
2022-12-27T19:12:46.308Z,93.71
2022-12-27T19:15:24.889Z,93.54
2022-12-27T19:17:55.250Z,93.50
2022-12-27T19:20:36.767Z,93.68
2022-12-27T19:23:49.160Z,93.42
2022-12-27T19:26:15.762Z,93.35
2022-12-27T19:28:55.432Z,91.85
2022-12-27T19:31:22.501Z,92.89
2022-12-27T19:33:55.450Z,92.70
2022-12-27T19:36:30.875Z,92.63
2022-12-27T19:38:58.564Z,92.99
2022-12-27T19:41:26.232Z,93.14
2022-12-27T19:43:53.598Z,92.99
2022-12-27T19:46:27.088Z,93.08
2022-12-27T19:51:43.674Z,93.47
2022-12-27T19:54:20.765Z,93.20
2022-12-27T19:56:47.716Z,93.10
2022-12-27T19:59:20.226Z,92.85
2022-12-27T20:01:46.882Z,93.29
2022-12-27T20:04:15.120Z,92.88
2022-12-27T20:06:45.478Z,93.07
2022-12-27T20:09:17.556Z,92.74
2022-12-27T20:11:44.898Z,92.68
2022-12-27T20:14:13.183Z,92.76
2022-12-27T20:16:42.823Z,92.76
2022-12-27T20:19:13.317Z,92.54
2022-12-27T20:21:40.646Z,92.57
2022-12-27T20:24:10.064Z,92.89
2022-12-27T20:26:38.938Z,92.74
2022-12-27T20:29:07.725Z,92.76
2022-12-27T20:31:42.237Z,92.38
2022-12-27T20:34:11.338Z,92.61
2022-12-27T20:36:38.115Z,92.68
2022-12-27T20:39:07.015Z,92.20
2022-12-27T20:41:33.608Z,92.23
2022-12-27T20:44:02.966Z,92.59
2022-12-27T20:46:29.910Z,92.58
2022-12-27T20:48:56.743Z,92.63
2022-12-27T20:51:27.224Z,92.52
2022-12-27T20:53:55.908Z,92.37
2022-12-27T20:56:25.334Z,92.15
2022-12-27T20:58:52.642Z,92.00
2022-12-27T21:01:23.965Z,91.91
2022-12-27T21:03:50.753Z,91.75
2022-12-27T21:06:20.881Z,91.81
2022-12-27T21:08:56.703Z,92.31
2022-12-27T21:11:30.344Z,91.70
2022-12-27T21:13:59.998Z,91.26
2022-12-27T21:16:29.299Z,91.54
2022-12-27T21:19:03.311Z,91.61
2022-12-27T21:21:31.090Z,91.50
2022-12-27T21:23:58.654Z,91.45
2022-12-27T21:26:31.178Z,91.76
2022-12-27T21:29:01.611Z,91.49
2022-12-27T21:31:29.188Z,91.47
2022-12-27T21:33:56.215Z,91.34
2022-12-27T21:36:25.069Z,91.03
2022-12-27T21:38:52.877Z,91.39
2022-12-27T21:41:23.713Z,91.22
2022-12-27T21:43:53.786Z,91.04
2022-12-27T21:46:26.955Z,91.28
2022-12-27T21:48:58.481Z,90.82
2022-12-27T21:51:29.062Z,91.26
2022-12-27T21:54:00.469Z,91.06
2022-12-27T21:56:27.835Z,91.15
2022-12-27T21:58:59.880Z,91.08
2022-12-27T22:01:50.714Z,90.78
2022-12-27T22:04:19.279Z,91.00
2022-12-27T22:06:47.323Z,91.06
2022-12-27T22:09:14.348Z,90.68
2022-12-27T22:11:40.955Z,90.69
2022-12-27T22:14:07.610Z,91.04
2022-12-27T22:16:38.929Z,90.69
2022-12-27T22:19:10.750Z,90.66
2022-12-27T22:21:39.119Z,90.76
2022-12-27T22:24:06.687Z,90.92
2022-12-27T22:26:37.457Z,90.59
2022-12-27T22:29:05.483Z,90.72
2022-12-27T22:31:35.403Z,90.82
2022-12-27T22:34:03.964Z,90.80
2022-12-27T22:36:31.106Z,90.93
2022-12-27T22:38:59.148Z,90.83
2022-12-27T22:41:33.305Z,90.67
2022-12-27T22:44:05.661Z,90.80
2022-12-27T22:46:58.710Z,90.68
2022-12-27T22:49:19.216Z,90.44
2022-12-27T22:51:45.810Z,90.72
2022-12-27T22:54:12.336Z,90.41
2022-12-27T22:56:42.791Z,90.74
2022-12-27T22:59:11.674Z,90.76
2022-12-27T23:01:42.169Z,90.73
2022-12-27T23:04:11.427Z,91.00
2022-12-27T23:06:40.095Z,90.85
2022-12-27T23:09:10.128Z,90.59
2022-12-27T23:11:41.156Z,90.78
2022-12-27T23:14:16.016Z,90.85
2022-12-27T23:16:48.534Z,90.80
2022-12-27T23:19:21.293Z,90.94
2022-12-27T23:21:49.161Z,91.13
2022-12-27T23:24:16.069Z,90.98
2022-12-27T23:26:45.632Z,91.04
2022-12-27T23:29:16.499Z,91.06
2022-12-27T23:31:54.438Z,90.99
2022-12-27T23:34:27.573Z,90.98
2022-12-27T23:36:55.178Z,91.44
2022-12-27T23:39:21.775Z,91.40
2022-12-27T23:41:48.277Z,91.27
2022-12-27T23:44:14.838Z,91.22
2022-12-27T23:46:41.539Z,91.52
2022-12-27T23:49:08.424Z,91.59
2022-12-27T23:51:37.336Z,91.54
2022-12-27T23:54:03.970Z,91.76
2022-12-27T23:56:33.866Z,91.62
2022-12-27T23:59:01.610Z,91.41
